Time;durP1;ratioP1;P1;durP2;ratioP2;P2;SDS_P1;SDS_P2;PMS_P1;PMS_P2;Temp;Humidity;BMP_temperature;BMP_pressure;BME280_temperature;BME280_humidity;BME280_pressure;Samples;Min_cycle;Max_cycle;Signal;HPM_P1;HPM_P2
2023/06/04 00:01:47;;;;;;;3.80;3.08;;;;;;;;;;12921468;23;20380;-91
2023/06/04 00:06:51;;;;;;;5.97;3.70;;;;;;;;;;12920691;23;20368;-91
2023/06/04 00:11:53;;;;;;;4.50;3.50;;;;;;;;;;12921536;23;20519;-91
2023/06/04 00:16:56;;;;;;;3.75;3.45;;;;;;;;;;12921283;23;20434;-91
2023/06/04 00:21:59;;;;;;;4.30;3.40;;;;;;;;;;12920813;23;20450;-91
2023/06/04 00:27:02;;;;;;;4.68;3.42;;;;;;;;;;12921157;23;20369;-90
2023/06/04 00:32:05;;;;;;;4.00;3.57;;;;;;;;;;12920224;23;20435;-91
2023/06/04 00:37:09;;;;;;;4.95;3.70;;;;;;;;;;12920318;23;20364;-91
2023/06/04 00:42:11;;;;;;;4.30;3.90;;;;;;;;;;12920618;23;20380;-91
2023/06/04 00:47:14;;;;;;;4.80;4.30;;;;;;;;;;12921086;22;20545;-91
2023/06/04 00:52:19;;;;;;;5.57;4.50;;;;;;;;;;12920160;22;20368;-90
2023/06/04 00:57:22;;;;;;;4.47;4.00;;;;;;;;;;12920674;22;20364;-91
2023/06/04 01:02:26;;;;;;;5.80;4.40;;;;;;;;;;12919091;22;20465;-91
2023/06/04 01:07:31;;;;;;;5.35;4.53;;;;;;;;;;12920250;23;20372;-90
2023/06/04 01:12:33;;;;;;;5.47;4.63;;;;;;;;;;12920739;23;20364;-89
2023/06/04 01:17:40;;;;;;;5.93;4.85;;;;;;;;;;12919614;22;20365;-90
2023/06/04 01:22:59;;;;;;;7.93;6.60;;;;;;;;;;12941150;23;20376;-90
2023/06/04 01:28:03;;;;;;;8.63;7.45;;;;;;;;;;12920011;22;20364;-90
2023/06/04 01:33:06;;;;;;;9.10;7.50;;;;;;;;;;12919380;23;20439;-91
2023/06/04 01:38:10;;;;;;;9.55;7.40;;;;;;;;;;12940040;23;20429;-91
2023/06/04 01:43:12;;;;;;;8.52;6.88;;;;;;;;;;12918995;23;20391;-91
2023/06/04 01:48:15;;;;;;;8.68;7.05;;;;;;;;;;12919148;22;20368;-91
2023/06/04 01:53:19;;;;;;;7.60;6.80;;;;;;;;;;12920116;22;20399;-90
2023/06/04 01:58:26;;;;;;;8.02;6.50;;;;;;;;;;12919721;22;20365;-91
2023/06/04 02:03:32;;;;;;;7.80;6.13;;;;;;;;;;12920235;22;20380;-90
2023/06/04 02:08:36;;;;;;;8.60;5.93;;;;;;;;;;12922117;22;20407;-90
2023/06/04 02:13:38;;;;;;;6.30;5.70;;;;;;;;;;12924696;22;20367;-90
2023/06/04 02:18:41;;;;;;;7.28;5.97;;;;;;;;;;12923269;22;20406;-90
2023/06/04 02:23:44;;;;;;;5.68;5.05;;;;;;;;;;12924025;22;20388;-91
2023/06/04 02:28:47;;;;;;;8.73;5.00;;;;;;;;;;12923415;22;20422;-90
2023/06/04 02:33:49;;;;;;;6.07;5.47;;;;;;;;;;12943932;23;20368;-91
2023/06/04 02:38:53;;;;;;;7.53;5.40;;;;;;;;;;12922666;22;20376;-90
2023/06/04 02:43:55;;;;;;;5.72;4.95;;;;;;;;;;12922666;23;20372;-91
2023/06/04 02:48:58;;;;;;;5.68;5.10;;;;;;;;;;12944027;23;20438;-90
2023/06/04 02:54:02;;;;;;;7.03;5.30;;;;;;;;;;12922510;22;20391;-91
2023/06/04 02:59:05;;;;;;;6.15;5.50;;;;;;;;;;12924770;23;20693;-91
2023/06/04 03:04:10;;;;;;;7.40;6.07;;;;;;;;;;12923054;22;20709;-90
2023/06/04 03:09:13;;;;;;;7.57;6.00;;;;;;;;;;12922568;22;20751;-90
2023/06/04 03:14:16;;;;;;;7.28;6.15;;;;;;;;;;12921934;22;20820;-91
2023/06/04 03:19:18;;;;;;;8.07;6.85;;;;;;;;;;12922287;22;20418;-91
2023/06/04 03:24:22;;;;;;;8.35;7.25;;;;;;;;;;12922193;22;20384;-91
2023/06/04 03:29:24;;;;;;;8.63;7.43;;;;;;;;;;12921341;22;20442;-90
2023/06/04 03:34:27;;;;;;;10.00;7.75;;;;;;;;;;12921559;22;20399;-91
2023/06/04 03:39:30;;;;;;;7.22;6.53;;;;;;;;;;12922096;22;20402;-92
2023/06/04 03:44:33;;;;;;;7.45;6.35;;;;;;;;;;12935811;23;20384;-90
2023/06/04 03:49:35;;;;;;;6.82;5.70;;;;;;;;;;12921755;22;20842;-91
2023/06/04 03:54:39;;;;;;;6.85;5.45;;;;;;;;;;12921528;22;20361;-90
2023/06/04 03:59:41;;;;;;;6.40;5.68;;;;;;;;;;12920685;22;20364;-91
2023/06/04 04:04:43;;;;;;;6.50;5.53;;;;;;;;;;12922104;22;20384;-92
2023/06/04 04:09:47;;;;;;;8.00;5.67;;;;;;;;;;12921050;22;20391;-91
2023/06/04 04:14:49;;;;;;;8.17;5.73;;;;;;;;;;12921920;22;20693;-91
2023/06/04 04:19:52;;;;;;;6.05;5.35;;;;;;;;;;12930718;23;20906;-91
2023/06/04 04:24:56;;;;;;;7.18;5.47;;;;;;;;;;12921952;22;20419;-91
2023/06/04 04:29:59;;;;;;;7.47;5.77;;;;;;;;;;12920044;23;20361;-91
2023/06/04 04:35:03;;;;;;;6.13;5.53;;;;;;;;;;12941590;23;20898;-91
2023/06/04 04:40:11;;;;;;;5.75;4.93;;;;;;;;;;12920543;23;20372;-90
2023/06/04 04:45:14;;;;;;;6.43;5.03;;;;;;;;;;12920222;23;20509;-91
2023/06/04 04:50:16;;;;;;;6.70;5.80;;;;;;;;;;12920681;22;20370;-91
2023/06/04 04:55:20;;;;;;;6.57;5.77;;;;;;;;;;12920661;23;20387;-91
2023/06/04 05:00:22;;;;;;;7.53;6.53;;;;;;;;;;12919933;22;20353;-90
2023/06/04 05:05:24;;;;;;;7.60;6.28;;;;;;;;;;12920660;22;20855;-90
2023/06/04 05:10:28;;;;;;;6.70;6.05;;;;;;;;;;12920491;22;20891;-91
2023/06/04 05:15:30;;;;;;;7.63;6.70;;;;;;;;;;12920088;22;20418;-90
2023/06/04 05:20:35;;;;;;;7.95;6.57;;;;;;;;;;12920602;23;20365;-91
2023/06/04 05:25:38;;;;;;;7.43;6.57;;;;;;;;;;12940314;23;20380;-90
2023/06/04 05:30:41;;;;;;;8.27;6.30;;;;;;;;;;12919052;23;20426;-91
2023/06/04 05:35:43;;;;;;;5.85;5.25;;;;;;;;;;12919248;22;20395;-91
2023/06/04 05:40:47;;;;;;;5.43;4.93;;;;;;;;;;12918591;22;20422;-91
2023/06/04 05:45:51;;;;;;;5.60;4.82;;;;;;;;;;12919971;22;20372;-91
2023/06/04 05:50:53;;;;;;;5.45;4.80;;;;;;;;;;12940218;23;20689;-91
2023/06/04 05:55:57;;;;;;;5.67;5.07;;;;;;;;;;12920048;22;20732;-90
2023/06/04 06:00:59;;;;;;;6.40;5.30;;;;;;;;;;12919204;22;20434;-90
2023/06/04 06:06:01;;;;;;;6.22;5.40;;;;;;;;;;12919077;22;20439;-90
2023/06/04 06:11:05;;;;;;;6.20;5.22;;;;;;;;;;12919851;22;20411;-90
2023/06/04 06:16:07;;;;;;;6.97;5.03;;;;;;;;;;12919042;22;20531;-90
2023/06/04 06:21:10;;;;;;;6.00;5.35;;;;;;;;;;12919272;22;20369;-90
2023/06/04 06:26:13;;;;;;;6.70;5.75;;;;;;;;;;12918766;22;20440;-91
2023/06/04 06:31:16;;;;;;;7.40;5.40;;;;;;;;;;12916437;22;20398;-90
2023/06/04 06:36:18;;;;;;;6.30;5.57;;;;;;;;;;12918135;22;20431;-90
2023/06/04 06:41:22;;;;;;;6.70;5.60;;;;;;;;;;12918639;22;20368;-90
2023/06/04 06:46:24;;;;;;;6.85;6.10;;;;;;;;;;12917895;22;20462;-89
2023/06/04 06:51:27;;;;;;;7.55;6.00;;;;;;;;;;12918303;23;20364;-89
2023/06/04 06:56:30;;;;;;;8.38;6.47;;;;;;;;;;12922012;22;20368;-90
2023/06/04 07:01:33;;;;;;;6.78;6.10;;;;;;;;;;12923144;22;20376;-89
2023/06/04 07:06:37;;;;;;;8.63;6.45;;;;;;;;;;12922231;22;20469;-89
2023/06/04 07:11:40;;;;;;;8.20;6.10;;;;;;;;;;12943298;23;20426;-89
2023/06/04 07:16:43;;;;;;;7.13;6.30;;;;;;;;;;12921529;22;20372;-90
2023/06/04 07:21:45;;;;;;;7.93;6.30;;;;;;;;;;12921760;22;20360;-89
2023/06/04 07:26:49;;;;;;;7.05;6.10;;;;;;;;;;12920045;22;20384;-90
2023/06/04 07:31:52;;;;;;;7.50;6.60;;;;;;;;;;12920234;22;20369;-90
2023/06/04 07:36:54;;;;;;;8.95;6.82;;;;;;;;;;12920899;22;20438;-89
2023/06/04 07:41:57;;;;;;;7.82;6.50;;;;;;;;;;12919943;22;20403;-90
2023/06/04 07:47:00;;;;;;;6.20;5.20;;;;;;;;;;12919533;22;20384;-90
2023/06/04 07:52:02;;;;;;;6.35;5.10;;;;;;;;;;12920917;22;20364;-90
2023/06/04 07:57:06;;;;;;;6.82;5.30;;;;;;;;;;12920127;22;20364;-90
2023/06/04 08:02:08;;;;;;;6.00;5.28;;;;;;;;;;12920609;23;20415;-90
2023/06/04 08:07:10;;;;;;;6.05;5.45;;;;;;;;;;12919026;22;20384;-89
2023/06/04 08:12:15;;;;;;;7.78;5.50;;;;;;;;;;12938456;23;20747;-90
2023/06/04 08:17:18;;;;;;;8.00;5.43;;;;;;;;;;12918950;22;20361;-90
2023/06/04 08:22:20;;;;;;;6.38;5.30;;;;;;;;;;12920117;22;20442;-90
2023/06/04 08:27:24;;;;;;;6.32;5.40;;;;;;;;;;12920660;22;20499;-90
2023/06/04 08:32:26;;;;;;;5.70;5.07;;;;;;;;;;12919282;22;20418;-90
2023/06/04 08:37:29;;;;;;;6.15;5.47;;;;;;;;;;12918952;23;20403;-90
2023/06/04 08:42:41;;;;;;;6.37;5.43;;;;;;;;;;12919711;22;20426;-90
2023/06/04 08:47:48;;;;;;;6.25;5.43;;;;;;;;;;12920340;23;20384;-91
2023/06/04 08:52:53;;;;;;;7.53;5.72;;;;;;;;;;12919245;23;20689;-90
2023/06/04 08:57:57;;;;;;;7.50;5.85;;;;;;;;;;12918248;22;20375;-91
2023/06/04 09:03:03;;;;;;;7.43;6.07;;;;;;;;;;12918476;22;20368;-91
2023/06/04 09:08:07;;;;;;;6.80;5.60;;;;;;;;;;12918775;22;20364;-90
2023/06/04 09:13:12;;;;;;;6.70;5.90;;;;;;;;;;12917745;22;20442;-90
2023/06/04 09:18:14;;;;;;;6.00;5.30;;;;;;;;;;12918355;22;20368;-90
2023/06/04 09:23:17;;;;;;;6.30;5.47;;;;;;;;;;12918379;22;20744;-91
2023/06/04 09:28:21;;;;;;;7.82;5.72;;;;;;;;;;12919223;22;20418;-91
2023/06/04 09:33:26;;;;;;;7.18;5.78;;;;;;;;;;12917672;22;20398;-90
2023/06/04 09:38:35;;;;;;;8.17;6.10;;;;;;;;;;12917756;22;20364;-91
2023/06/04 09:43:39;;;;;;;6.93;6.10;;;;;;;;;;12917895;22;20372;-88
2023/06/04 09:48:42;;;;;;;6.17;5.57;;;;;;;;;;12919085;22;20356;-90
2023/06/04 09:53:54;;;;;;;7.40;5.60;;;;;;;;;;12918778;22;20372;-91
2023/06/04 09:59:01;;;;;;;7.45;4.95;;;;;;;;;;12918447;22;20364;-91
2023/06/04 10:04:04;;;;;;;7.10;5.35;;;;;;;;;;12937994;23;20745;-91
2023/06/04 10:09:08;;;;;;;6.47;5.10;;;;;;;;;;12939216;23;20403;-89
2023/06/04 10:14:19;;;;;;;5.93;5.33;;;;;;;;;;12917701;22;20372;-91
2023/06/04 10:19:22;;;;;;;6.45;5.72;;;;;;;;;;12917325;22;20418;-90
2023/06/04 10:24:26;;;;;;;6.85;6.00;;;;;;;;;;12918464;23;20419;-92
2023/06/04 10:29:33;;;;;;;7.40;5.80;;;;;;;;;;12919816;22;20356;-91
2023/06/04 10:34:36;;;;;;;8.50;6.35;;;;;;;;;;12943445;23;20411;-91
2023/06/04 10:39:39;;;;;;;8.18;6.85;;;;;;;;;;12922100;22;20371;-91
2023/06/04 10:44:47;;;;;;;8.60;6.87;;;;;;;;;;12922510;22;20764;-90
2023/06/04 10:49:51;;;;;;;8.82;6.50;;;;;;;;;;12921030;22;20434;-90
2023/06/04 10:55:04;;;;;;;9.25;6.70;;;;;;;;;;12921202;22;20373;-90
2023/06/04 11:00:10;;;;;;;8.38;6.63;;;;;;;;;;12921738;22;20435;-90
2023/06/04 11:05:12;;;;;;;7.43;6.67;;;;;;;;;;12921204;22;20388;-90
2023/06/04 11:10:15;;;;;;;8.02;6.90;;;;;;;;;;12921911;22;20365;-90
2023/06/04 11:15:19;;;;;;;8.63;7.32;;;;;;;;;;12920508;22;20422;-90
2023/06/04 11:20:23;;;;;;;9.87;7.10;;;;;;;;;;12921480;22;20364;-90
2023/06/04 11:25:26;;;;;;;8.38;6.75;;;;;;;;;;12942221;23;20439;-90
2023/06/04 11:30:30;;;;;;;8.65;6.80;;;;;;;;;;12921513;22;20357;-91
2023/06/04 11:35:40;;;;;;;8.57;6.43;;;;;;;;;;12918252;22;20878;-91
2023/06/04 11:40:44;;;;;;;9.57;7.10;;;;;;;;;;12912870;22;20434;-90
2023/06/04 11:45:48;;;;;;;7.47;6.47;;;;;;;;;;12912394;22;20848;-91
2023/06/04 11:50:50;;;;;;;7.55;6.75;;;;;;;;;;12913889;22;20434;-90
2023/06/04 11:55:53;;;;;;;7.63;6.38;;;;;;;;;;12911856;22;20430;-90
2023/06/04 12:00:58;;;;;;;8.15;6.53;;;;;;;;;;12913296;22;20376;-91
2023/06/04 12:06:09;;;;;;;7.38;5.80;;;;;;;;;;12913104;22;20446;-91
2023/06/04 12:11:26;;;;;;;7.43;6.30;;;;;;;;;;12912345;22;20388;-91
2023/06/04 12:16:30;;;;;;;6.88;5.85;;;;;;;;;;12913487;22;20376;-90
2023/06/04 12:21:32;;;;;;;6.60;5.90;;;;;;;;;;12933186;22;20364;-91
2023/06/04 12:26:37;;;;;;;6.90;5.50;;;;;;;;;;12916233;22;20387;-91
2023/06/04 12:31:42;;;;;;;8.80;6.13;;;;;;;;;;12937852;23;20360;-90
2023/06/04 12:36:44;;;;;;;7.72;5.93;;;;;;;;;;12916830;23;20364;-90
2023/06/04 12:41:47;;;;;;;5.83;5.17;;;;;;;;;;12917822;22;20369;-90
2023/06/04 12:46:51;;;;;;;6.32;5.28;;;;;;;;;;12921053;22;20384;-91
2023/06/04 12:51:53;;;;;;;6.78;5.53;;;;;;;;;;12920070;22;20368;-91
2023/06/04 12:56:57;;;;;;;6.50;5.45;;;;;;;;;;12921803;23;20446;-92
2023/06/04 13:02:00;;;;;;;8.38;5.32;;;;;;;;;;12918897;22;20376;-91
2023/06/04 13:07:03;;;;;;;5.88;5.28;;;;;;;;;;12931869;23;20377;-91
2023/06/04 13:12:06;;;;;;;8.00;5.55;;;;;;;;;;12933875;22;20398;-91
2023/06/04 13:17:11;;;;;;;5.70;5.00;;;;;;;;;;12919361;22;21386;-91
2023/06/04 13:22:14;;;;;;;5.30;4.80;;;;;;;;;;12919944;23;20431;-91
2023/06/04 13:27:16;;;;;;;6.07;5.20;;;;;;;;;;12919474;23;20410;-91
2023/06/04 13:32:20;;;;;;;7.43;5.30;;;;;;;;;;12919440;22;20380;-92
2023/06/04 13:37:22;;;;;;;7.03;5.28;;;;;;;;;;12919638;23;20364;-89
2023/06/04 13:42:25;;;;;;;8.00;5.27;;;;;;;;;;12919060;22;20365;-91
2023/06/04 13:47:28;;;;;;;5.40;4.50;;;;;;;;;;12918000;22;20860;-90
2023/06/04 13:52:31;;;;;;;5.28;4.70;;;;;;;;;;12921088;22;20376;-91
2023/06/04 13:57:33;;;;;;;7.63;4.50;;;;;;;;;;12919320;23;20926;-92
2023/06/04 14:02:37;;;;;;;5.15;4.65;;;;;;;;;;12919609;22;20408;-92
2023/06/04 14:25:14;;;;;;;5.07;4.57;;;;;;;;;;13008412;22;20416;-91
2023/06/04 14:30:16;;;;;;;6.03;4.57;;;;;;;;;;12985471;22;20718;-90
2023/06/04 14:35:18;;;;;;;5.30;4.75;;;;;;;;;;12987665;22;20396;-91
2023/06/04 14:40:22;;;;;;;5.38;4.00;;;;;;;;;;12985440;22;20363;-92
2023/06/04 14:45:25;;;;;;;4.60;4.10;;;;;;;;;;13006106;22;20378;-91
2023/06/04 14:50:27;;;;;;;4.73;4.00;;;;;;;;;;13006747;22;20400;-91
2023/06/04 14:55:31;;;;;;;4.67;4.27;;;;;;;;;;12984931;22;20363;-92
2023/06/04 15:00:33;;;;;;;5.07;4.38;;;;;;;;;;12984660;22;20382;-91
2023/06/04 15:05:35;;;;;;;5.03;4.13;;;;;;;;;;12985487;22;20439;-91
2023/06/04 15:10:39;;;;;;;5.63;4.30;;;;;;;;;;12985106;22;20428;-92
2023/06/04 15:15:41;;;;;;;5.50;4.07;;;;;;;;;;12983362;22;20417;-92
2023/06/04 15:20:44;;;;;;;5.68;4.30;;;;;;;;;;13010722;22;20369;-92
2023/06/04 15:25:47;;;;;;;4.95;4.45;;;;;;;;;;13062714;22;20373;-92
2023/06/04 15:30:50;;;;;;;4.90;4.40;;;;;;;;;;13048681;22;20686;-92
2023/06/04 15:35:52;;;;;;;4.63;4.10;;;;;;;;;;13049902;22;20373;-92
2023/06/04 15:40:56;;;;;;;3.80;3.50;;;;;;;;;;13049207;22;20360;-92
2023/06/04 15:45:58;;;;;;;4.68;4.03;;;;;;;;;;13048735;22;20380;-92
2023/06/04 15:51:01;;;;;;;4.57;3.90;;;;;;;;;;13057631;22;20365;-90
2023/06/04 15:56:04;;;;;;;4.10;3.70;;;;;;;;;;13048645;22;20426;-91
2023/06/04 16:01:07;;;;;;;4.87;3.83;;;;;;;;;;13050343;22;20438;-90
2023/06/04 16:06:10;;;;;;;4.13;3.70;;;;;;;;;;13048856;22;20368;-91
2023/06/04 16:11:14;;;;;;;4.60;3.97;;;;;;;;;;13047718;22;20914;-91
2023/06/04 16:16:16;;;;;;;4.13;3.72;;;;;;;;;;13068321;22;20357;-91
2023/06/04 16:21:19;;;;;;;5.05;3.85;;;;;;;;;;13047066;22;20509;-91
2023/06/04 16:26:23;;;;;;;4.87;3.77;;;;;;;;;;13049579;22;20381;-91
2023/06/04 16:31:25;;;;;;;4.30;3.90;;;;;;;;;;13078900;22;20369;-91
2023/06/04 16:36:27;;;;;;;4.53;4.13;;;;;;;;;;13047835;22;20361;-91
2023/06/04 16:41:31;;;;;;;5.15;3.83;;;;;;;;;;13047752;22;20406;-91
2023/06/04 16:46:34;;;;;;;4.40;3.80;;;;;;;;;;13046637;22;20381;-91
2023/06/04 16:51:36;;;;;;;5.60;4.10;;;;;;;;;;13046522;22;20361;-91
2023/06/04 16:56:40;;;;;;;5.27;3.70;;;;;;;;;;13047006;22;20369;-91
2023/06/04 17:01:45;;;;;;;5.85;5.25;;;;;;;;;;13046700;22;20580;-91
2023/06/04 17:06:48;;;;;;;4.47;3.78;;;;;;;;;;13046656;22;20384;-91
2023/06/04 17:11:52;;;;;;;5.85;4.57;;;;;;;;;;13045305;22;20435;-90
2023/06/04 17:16:54;;;;;;;4.97;3.92;;;;;;;;;;13044812;22;20817;-91
2023/06/04 17:21:56;;;;;;;4.43;4.03;;;;;;;;;;13058291;22;20369;-91
2023/06/04 17:27:00;;;;;;;4.20;3.63;;;;;;;;;;13046453;22;20385;-91
2023/06/04 17:32:02;;;;;;;4.70;3.80;;;;;;;;;;13045334;22;20418;-91
2023/06/04 17:37:05;;;;;;;5.13;3.90;;;;;;;;;;13056836;22;20365;-90
2023/06/04 17:42:09;;;;;;;5.38;4.50;;;;;;;;;;13055098;22;20364;-91
2023/06/04 17:47:11;;;;;;;5.53;4.77;;;;;;;;;;13063955;22;20377;-90
2023/06/04 17:52:14;;;;;;;6.70;5.60;;;;;;;;;;13068343;22;20746;-90
2023/06/04 17:57:17;;;;;;;6.00;5.40;;;;;;;;;;13046082;22;20845;-91
2023/06/04 18:02:20;;;;;;;6.00;5.40;;;;;;;;;;13067378;22;20364;-91
2023/06/04 18:07:22;;;;;;;13.00;6.80;;;;;;;;;;13044623;22;20381;-92
2023/06/04 18:12:26;;;;;;;8.65;6.07;;;;;;;;;;13043967;22;20369;-86
2023/06/04 18:17:28;;;;;;;7.40;6.07;;;;;;;;;;13042443;22;20417;-90
2023/06/04 18:22:31;;;;;;;8.87;6.20;;;;;;;;;;13044424;22;20361;-87
2023/06/04 18:27:35;;;;;;;8.27;6.55;;;;;;;;;;13043033;22;20852;-84
2023/06/04 18:32:37;;;;;;;7.15;5.97;;;;;;;;;;13064247;22;20745;-86
2023/06/04 18:37:41;;;;;;;9.63;7.75;;;;;;;;;;13041101;22;20361;-86
2023/06/04 18:42:45;;;;;;;7.35;6.07;;;;;;;;;;13047405;22;20422;-91
2023/06/04 18:47:48;;;;;;;9.43;7.30;;;;;;;;;;13068249;22;20910;-91
2023/06/04 18:52:51;;;;;;;8.73;7.03;;;;;;;;;;13049179;22;20391;-90
2023/06/04 18:57:55;;;;;;;9.07;6.70;;;;;;;;;;13049683;22;20821;-91
2023/06/04 19:02:57;;;;;;;9.23;7.43;;;;;;;;;;13048040;22;20361;-91
2023/06/04 19:08:00;;;;;;;8.30;7.07;;;;;;;;;;13065128;22;20411;-91
2023/06/04 19:13:03;;;;;;;7.90;6.65;;;;;;;;;;13049188;22;20422;-91
2023/06/04 19:18:06;;;;;;;9.83;7.50;;;;;;;;;;13052427;22;20434;-83
2023/06/04 19:23:15;;;;;;;8.75;6.90;;;;;;;;;;13034781;22;20369;-83
2023/06/04 19:28:18;;;;;;;7.57;6.80;;;;;;;;;;13033047;22;20385;-84
2023/06/04 19:33:21;;;;;;;8.67;6.90;;;;;;;;;;13034878;22;20373;-76
2023/06/04 19:38:23;;;;;;;9.68;7.55;;;;;;;;;;13033837;22;20365;-76
2023/06/04 19:43:28;;;;;;;9.90;6.80;;;;;;;;;;13034122;22;20427;-86
2023/06/04 19:48:30;;;;;;;7.40;6.70;;;;;;;;;;13037614;22;20442;-87
2023/06/04 19:53:32;;;;;;;10.18;7.55;;;;;;;;;;13038039;22;20839;-87
2023/06/04 19:58:36;;;;;;;8.75;7.00;;;;;;;;;;13033772;22;20407;-87
2023/06/04 20:03:39;;;;;;;7.93;7.20;;;;;;;;;;13041247;22;20651;-87
2023/06/04 20:08:43;;;;;;;8.30;6.93;;;;;;;;;;13033789;22;20922;-87
2023/06/04 20:13:46;;;;;;;11.73;7.30;;;;;;;;;;13033873;22;20434;-87
2023/06/04 20:18:50;;;;;;;10.88;7.80;;;;;;;;;;13035217;22;20407;-86
2023/06/04 20:23:53;;;;;;;10.73;7.28;;;;;;;;;;13034790;22;20442;-87
2023/06/04 20:28:57;;;;;;;13.88;7.00;;;;;;;;;;13032677;22;20849;-88
2023/06/04 20:33:59;;;;;;;10.73;7.40;;;;;;;;;;13052393;22;20370;-88
2023/06/04 20:39:03;;;;;;;10.85;7.43;;;;;;;;;;13032293;22;20894;-89
2023/06/04 20:44:14;;;;;;;10.05;7.82;;;;;;;;;;13035793;22;20361;-89
2023/06/04 20:49:17;;;;;;;11.43;7.83;;;;;;;;;;13039378;22;20438;-89
2023/06/04 20:54:19;;;;;;;10.88;7.70;;;;;;;;;;13039595;22;20368;-89
2023/06/04 20:59:23;;;;;;;10.25;7.70;;;;;;;;;;13043732;22;20759;-88
2023/06/04 21:04:25;;;;;;;11.60;8.25;;;;;;;;;;13039512;22;20431;-89
2023/06/04 21:09:28;;;;;;;17.15;11.90;;;;;;;;;;13040771;22;20369;-89
2023/06/04 21:14:31;;;;;;;16.90;12.00;;;;;;;;;;13040326;22;20361;-90
2023/06/04 21:19:34;;;;;;;13.48;11.13;;;;;;;;;;13041342;22;20907;-90
2023/06/04 21:24:36;;;;;;;13.20;11.10;;;;;;;;;;13041441;22;20446;-90
2023/06/04 21:29:40;;;;;;;15.87;11.30;;;;;;;;;;13039006;22;20414;-89
2023/06/04 21:34:42;;;;;;;17.95;12.60;;;;;;;;;;13039972;22;20373;-89
2023/06/04 21:39:45;;;;;;;18.55;13.40;;;;;;;;;;13041394;22;20449;-90
2023/06/04 21:44:48;;;;;;;15.73;12.65;;;;;;;;;;13034957;22;20361;-89
2023/06/04 21:49:51;;;;;;;13.63;10.97;;;;;;;;;;13039141;22;20915;-89
2023/06/04 21:54:53;;;;;;;14.38;11.68;;;;;;;;;;13062502;22;20398;-89
2023/06/04 21:59:57;;;;;;;13.50;10.40;;;;;;;;;;13044739;22;20426;-89
2023/06/04 22:04:59;;;;;;;11.40;8.87;;;;;;;;;;13036081;22;20373;-89
2023/06/04 22:10:02;;;;;;;12.13;8.77;;;;;;;;;;13040858;22;20385;-89
2023/06/04 22:15:07;;;;;;;11.30;8.00;;;;;;;;;;13015005;22;20535;-89
2023/06/04 22:20:10;;;;;;;12.33;8.93;;;;;;;;;;13043026;22;20902;-89
2023/06/04 22:25:12;;;;;;;10.07;8.63;;;;;;;;;;13047200;22;20365;-89
2023/06/04 22:30:16;;;;;;;9.73;8.32;;;;;;;;;;13047187;22;20381;-89
2023/06/04 22:35:18;;;;;;;9.43;8.38;;;;;;;;;;13048210;22;20411;-89
2023/06/04 22:40:21;;;;;;;12.35;7.88;;;;;;;;;;13048392;22;20361;-89
2023/06/04 22:45:25;;;;;;;10.00;7.75;;;;;;;;;;13048971;22;20361;-89
2023/06/04 22:50:27;;;;;;;9.38;7.43;;;;;;;;;;13048938;22;20438;-89
2023/06/04 22:55:29;;;;;;;9.60;7.20;;;;;;;;;;13048708;22;20747;-89
2023/06/04 23:00:33;;;;;;;7.88;6.65;;;;;;;;;;13047335;22;20361;-89
2023/06/04 23:05:35;;;;;;;7.13;6.20;;;;;;;;;;13048634;22;20361;-89
2023/06/04 23:10:38;;;;;;;6.90;6.05;;;;;;;;;;13048446;22;20498;-89
2023/06/04 23:15:41;;;;;;;7.33;6.27;;;;;;;;;;13047353;22;20365;-89
2023/06/04 23:20:44;;;;;;;6.72;5.82;;;;;;;;;;13047381;22;20365;-89
2023/06/04 23:25:46;;;;;;;7.57;5.43;;;;;;;;;;13048022;22;20422;-89
2023/06/04 23:30:50;;;;;;;6.43;5.30;;;;;;;;;;13047153;22;20430;-89
2023/06/04 23:35:52;;;;;;;7.28;5.57;;;;;;;;;;13048146;22;20920;-89
2023/06/04 23:40:54;;;;;;;6.83;5.50;;;;;;;;;;13162927;22;20378;-89
2023/06/04 23:45:58;;;;;;;8.00;5.70;;;;;;;;;;13199219;22;20816;-89
2023/06/04 23:51:00;;;;;;;6.13;5.37;;;;;;;;;;13178013;22;20377;-89
2023/06/04 23:56:03;;;;;;;7.30;5.78;;;;;;;;;;13179177;22;20437;-89
